»·PEaware :: N378L KSNA-KBUR

N378L :: KSNA-KBUR

FLIGHT INFORMATION

Flight Status: Arrived
Operator: Privately registered:
United States
More flights under this callsign
Pilot: Wilver N. (25840)
Aircraft: CESSNA 172 SKYHAWK
(C172)
More flights by this aircraft type
Origin: KSNA John Wayne-Orange Co
United States
Destination: KBUR Bob Hope-Burbank
United States
More flights between these airports :: More routes between these airports
Route: SLI V23 POPPR SMO125 SMO SMO311 SILEX
File this flight plan on PilotEdge
Remarks:
Altitude:
(Current/Filed)
4,000ft
Speed:
(Current/Filed)
120kts
Departed: 11-Jan-21 07:14 PM
Arrived: 11-Jan-21 07:50 PM
Distance/Time
Traveled:
40nm/0:36
Distance/Time
To Go:
Arrived

Flight Plot

Page will automatically refresh every two minutes.


Map Options




Map Legend


Flown Route
Filed Route
Departure Airport
Arrival Airport
Navaid (VOR, NDB)
Fix

Horizontal Profiles

Position Reports

Time Latitude Longitude Heading Altitude Ground
Speed
11-Jan-21 18:23 34.196706 -118.352868 179 698ft 0kts
11-Jan-21 18:23 34.196706 -118.352868 179 698ft 0kts
11-Jan-21 18:24 34.196706 -118.352868 179 698ft 0kts
11-Jan-21 18:25 34.196706 -118.352868 179 698ft 0kts
11-Jan-21 18:26 34.196706 -118.352868 179 698ft 0kts
11-Jan-21 18:27 34.196706 -118.352868 179 698ft 0kts
11-Jan-21 18:28 34.196706 -118.352868 179 698ft 0kts
11-Jan-21 18:29 34.196706 -118.352868 179 698ft 0kts
11-Jan-21 18:30 34.196706 -118.352868 179 698ft 0kts
11-Jan-21 18:31 33.675307 -117.864734 118 60ft 0kts
11-Jan-21 18:32 33.675307 -117.864734 118 60ft 0kts
11-Jan-21 18:33 33.675307 -117.864734 118 60ft 0kts
11-Jan-21 18:34 33.675307 -117.864734 118 60ft 0kts
11-Jan-21 18:35 33.675307 -117.864734 118 60ft 0kts
11-Jan-21 18:36 33.675307 -117.864734 118 60ft 0kts
11-Jan-21 18:37 33.675307 -117.864734 118 60ft 0kts
11-Jan-21 18:38 33.675307 -117.864734 118 60ft 0kts
11-Jan-21 18:39 33.675307 -117.864734 118 60ft 0kts
11-Jan-21 18:41 33.675307 -117.864734 118 60ft 0kts
11-Jan-21 18:42 33.675307 -117.864734 118 60ft 0kts
11-Jan-21 18:43 33.675307 -117.864734 118 60ft 0kts
11-Jan-21 18:44 33.675307 -117.864734 118 60ft 0kts
11-Jan-21 18:45 33.675307 -117.864734 118 60ft 0kts
11-Jan-21 18:46 33.675307 -117.864734 118 60ft 0kts
11-Jan-21 18:47 33.675307 -117.864734 118 60ft 0kts
11-Jan-21 18:48 33.675307 -117.864734 118 60ft 0kts
11-Jan-21 18:49 33.675307 -117.864734 118 60ft 0kts
11-Jan-21 18:50 33.675307 -117.864734 118 60ft 0kts
11-Jan-21 18:51 33.675307 -117.864734 118 60ft 0kts
11-Jan-21 18:52 33.675307 -117.864734 118 60ft 0kts
11-Jan-21 18:53 33.675307 -117.864734 118 60ft 0kts
11-Jan-21 18:54 33.675307 -117.864734 118 60ft 0kts
11-Jan-21 18:55 33.675307 -117.864734 118 60ft 0kts
11-Jan-21 18:56 33.675307 -117.864734 118 60ft 0kts
11-Jan-21 18:57 33.675307 -117.864734 118 60ft 0kts
11-Jan-21 18:58 33.675307 -117.864734 118 60ft 0kts
11-Jan-21 18:59 33.675307 -117.864734 118 60ft 0kts
11-Jan-21 19:00 33.675307 -117.864734 118 60ft 0kts
11-Jan-21 19:01 33.675307 -117.864734 118 60ft 0kts
11-Jan-21 19:02 33.675307 -117.864734 118 60ft 0kts
11-Jan-21 19:03 33.675307 -117.864734 118 60ft 0kts
11-Jan-21 19:04 33.675307 -117.864734 118 60ft 0kts
11-Jan-21 19:05 33.675307 -117.864734 118 60ft 0kts
11-Jan-21 19:06 33.675261 -117.864802 284 60ft 3kts
11-Jan-21 19:07 33.677345 -117.865026 29 60ft 12kts
11-Jan-21 19:08 33.679903 -117.863511 317 60ft 7kts
11-Jan-21 19:09 33.679957 -117.863597 318 60ft 0kts
11-Jan-21 19:10 33.679957 -117.863597 318 60ft 0kts
11-Jan-21 19:11 33.679957 -117.863597 318 60ft 0kts
11-Jan-21 19:12 33.679959 -117.863599 317 60ft 0kts
11-Jan-21 19:13 33.669279 -117.871055 210 294ft 89kts
11-Jan-21 19:14 33.652485 -117.891836 235 1249ft 88kts
11-Jan-21 19:15 33.641152 -117.919368 254 2036ft 98kts
11-Jan-21 19:16 33.629257 -117.948377 234 2775ft 103kts
11-Jan-21 19:17 33.637416 -117.978344 295 3028ft 123kts
11-Jan-21 19:18 33.650890 -118.017152 298 3202ft 123kts
11-Jan-21 19:19 33.666268 -118.051033 298 3630ft 112kts
11-Jan-21 19:20 33.681305 -118.084114 298 3800ft 127kts
11-Jan-21 19:21 33.698581 -118.122071 298 3798ft 131kts
11-Jan-21 19:22 33.718593 -118.158654 307 3796ft 125kts
11-Jan-21 19:23 33.741200 -118.188325 315 3798ft 117kts
11-Jan-21 19:24 33.764188 -118.216259 315 3789ft 117kts
11-Jan-21 19:25 33.787573 -118.243411 318 3789ft 117kts
11-Jan-21 19:26 33.813835 -118.266270 328 3789ft 117kts
11-Jan-21 19:27 33.841187 -118.287269 323 3788ft 117kts
11-Jan-21 19:28 33.866498 -118.312012 320 3789ft 117kts
11-Jan-21 19:29 33.891568 -118.337040 320 3789ft 117kts
11-Jan-21 19:30 33.916479 -118.362024 320 3789ft 117kts
11-Jan-21 19:31 33.941483 -118.387144 320 3789ft 117kts
11-Jan-21 19:32 33.966674 -118.412479 320 3789ft 117kts
11-Jan-21 19:33 33.991582 -118.437546 320 3789ft 117kts
11-Jan-21 19:34 34.017252 -118.461770 326 3789ft 117kts
11-Jan-21 19:35 34.044395 -118.483971 326 3789ft 117kts
11-Jan-21 19:36 34.071377 -118.505885 326 3682ft 117kts
11-Jan-21 19:37 34.097915 -118.527399 326 3279ft 114kts
11-Jan-21 19:38 34.123264 -118.547987 326 3087ft 101kts
11-Jan-21 19:39 34.145714 -118.566240 326 3089ft 97kts
11-Jan-21 19:40 34.167749 -118.584169 326 3089ft 96kts
11-Jan-21 19:42 34.189962 -118.589119 56 3091ft 95kts
11-Jan-21 19:43 34.199670 -118.561137 78 3089ft 95kts
11-Jan-21 19:44 34.198416 -118.529871 96 2984ft 105kts
11-Jan-21 19:45 34.197090 -118.497456 92 2784ft 84kts
11-Jan-21 19:46 34.196256 -118.465704 92 2630ft 105kts
11-Jan-21 19:47 34.195403 -118.432768 84 2388ft 92kts
11-Jan-21 19:48 34.198123 -118.404210 86 1757ft 83kts
11-Jan-21 19:49 34.198144 -118.377287 92 1003ft 70kts
11-Jan-21 19:50 34.198377 -118.360254 0 716ft 15kts
11-Jan-21 19:51 34.199666 -118.360037 77 721ft 6kts
11-Jan-21 19:52 34.199521 -118.359358 188 719ft 0kts

Navigation Log

Ident Type
Flight plan parsing failed, navigation log unavailable